sensor_id;sensor_type;location;lat;lon;timestamp;P1;durP1;ratioP1;P2;durP2;ratioP2
44850;SDS011;30583;48.714;9.386;2023-03-14T00:01:46;2.05;;;0.90;;
44850;SDS011;30583;48.714;9.386;2023-03-14T00:04:12;2.63;;;1.00;;
44850;SDS011;30583;48.714;9.386;2023-03-14T00:06:37;2.13;;;1.00;;
44850;SDS011;30583;48.714;9.386;2023-03-14T00:09:03;1.63;;;0.82;;
44850;SDS011;30583;48.714;9.386;2023-03-14T00:11:29;1.58;;;0.70;;
44850;SDS011;30583;48.714;9.386;2023-03-14T00:13:54;1.08;;;0.77;;
44850;SDS011;30583;48.714;9.386;2023-03-14T00:16:21;0.93;;;0.50;;
44850;SDS011;30583;48.714;9.386;2023-03-14T00:18:46;1.77;;;0.70;;
44850;SDS011;30583;48.714;9.386;2023-03-14T00:21:12;1.23;;;0.52;;
44850;SDS011;30583;48.714;9.386;2023-03-14T00:23:39;0.88;;;0.40;;
44850;SDS011;30583;48.714;9.386;2023-03-14T00:26:07;2.00;;;0.52;;
44850;SDS011;30583;48.714;9.386;2023-03-14T00:28:35;1.30;;;0.50;;
44850;SDS011;30583;48.714;9.386;2023-03-14T00:31:04;1.30;;;0.60;;
44850;SDS011;30583;48.714;9.386;2023-03-14T00:33:34;1.20;;;0.28;;
44850;SDS011;30583;48.714;9.386;2023-03-14T00:36:19;0.77;;;0.43;;
44850;SDS011;30583;48.714;9.386;2023-03-14T00:41:13;0.70;;;0.40;;
44850;SDS011;30583;48.714;9.386;2023-03-14T00:43:40;1.05;;;0.40;;
44850;SDS011;30583;48.714;9.386;2023-03-14T00:46:06;1.42;;;0.30;;
44850;SDS011;30583;48.714;9.386;2023-03-14T00:48:32;2.67;;;0.50;;
44850;SDS011;30583;48.714;9.386;2023-03-14T00:50:58;0.82;;;0.30;;
44850;SDS011;30583;48.714;9.386;2023-03-14T00:53:24;1.23;;;0.30;;
44850;SDS011;30583;48.714;9.386;2023-03-14T00:55:50;2.08;;;0.60;;
44850;SDS011;30583;48.714;9.386;2023-03-14T00:58:16;1.15;;;0.50;;
44850;SDS011;30583;48.714;9.386;2023-03-14T01:00:42;2.45;;;0.75;;
44850;SDS011;30583;48.714;9.386;2023-03-14T01:03:09;1.15;;;0.50;;
44850;SDS011;30583;48.714;9.386;2023-03-14T01:05:36;0.93;;;0.60;;
44850;SDS011;30583;48.714;9.386;2023-03-14T01:08:02;1.67;;;0.77;;
44850;SDS011;30583;48.714;9.386;2023-03-14T01:10:28;2.03;;;0.70;;
44850;SDS011;30583;48.714;9.386;2023-03-14T01:12:54;1.42;;;0.95;;
44850;SDS011;30583;48.714;9.386;2023-03-14T01:15:20;2.38;;;1.23;;
44850;SDS011;30583;48.714;9.386;2023-03-14T01:17:46;2.50;;;1.10;;
44850;SDS011;30583;48.714;9.386;2023-03-14T01:20:12;2.13;;;0.90;;
44850;SDS011;30583;48.714;9.386;2023-03-14T01:22:39;1.80;;;1.05;;
44850;SDS011;30583;48.714;9.386;2023-03-14T01:25:07;3.88;;;1.50;;
44850;SDS011;30583;48.714;9.386;2023-03-14T01:27:33;4.03;;;1.42;;
44850;SDS011;30583;48.714;9.386;2023-03-14T01:29:59;4.38;;;1.30;;
44850;SDS011;30583;48.714;9.386;2023-03-14T01:32:25;2.97;;;1.20;;
44850;SDS011;30583;48.714;9.386;2023-03-14T01:34:51;2.58;;;1.13;;
44850;SDS011;30583;48.714;9.386;2023-03-14T01:37:16;1.88;;;0.98;;
44850;SDS011;30583;48.714;9.386;2023-03-14T01:39:42;2.30;;;1.10;;
44850;SDS011;30583;48.714;9.386;2023-03-14T01:42:08;2.45;;;1.02;;
44850;SDS011;30583;48.714;9.386;2023-03-14T01:47:51;3.05;;;1.10;;
44850;SDS011;30583;48.714;9.386;2023-03-14T01:50:17;2.28;;;0.85;;
44850;SDS011;30583;48.714;9.386;2023-03-14T01:52:44;3.22;;;1.10;;
44850;SDS011;30583;48.714;9.386;2023-03-14T01:55:14;2.85;;;0.88;;
44850;SDS011;30583;48.714;9.386;2023-03-14T01:57:52;1.13;;;0.55;;
44850;SDS011;30583;48.714;9.386;2023-03-14T02:00:22;0.60;;;0.50;;
44850;SDS011;30583;48.714;9.386;2023-03-14T02:02:49;1.90;;;0.47;;
44850;SDS011;30583;48.714;9.386;2023-03-14T02:05:19;0.93;;;0.60;;
44850;SDS011;30583;48.714;9.386;2023-03-14T02:07:49;1.55;;;0.52;;
44850;SDS011;30583;48.714;9.386;2023-03-14T02:10:17;0.95;;;0.22;;
44850;SDS011;30583;48.714;9.386;2023-03-14T02:12:46;0.77;;;0.40;;
44850;SDS011;30583;48.714;9.386;2023-03-14T02:15:13;1.15;;;0.50;;
44850;SDS011;30583;48.714;9.386;2023-03-14T02:17:39;0.43;;;0.25;;
44850;SDS011;30583;48.714;9.386;2023-03-14T02:20:19;1.58;;;0.38;;
44850;SDS011;30583;48.714;9.386;2023-03-14T02:22:49;0.30;;;0.20;;
44850;SDS011;30583;48.714;9.386;2023-03-14T02:25:27;0.40;;;0.10;;
44850;SDS011;30583;48.714;9.386;2023-03-14T02:28:12;0.52;;;0.20;;
44850;SDS011;30583;48.714;9.386;2023-03-14T02:30:39;0.65;;;0.30;;
44850;SDS011;30583;48.714;9.386;2023-03-14T02:33:06;0.60;;;0.22;;
44850;SDS011;30583;48.714;9.386;2023-03-14T02:35:38;0.30;;;0.25;;
44850;SDS011;30583;48.714;9.386;2023-03-14T02:40:42;0.20;;;0.20;;
44850;SDS011;30583;48.714;9.386;2023-03-14T02:43:08;1.67;;;0.40;;
44850;SDS011;30583;48.714;9.386;2023-03-14T02:45:43;1.15;;;0.40;;
44850;SDS011;30583;48.714;9.386;2023-03-14T02:48:14;0.63;;;0.30;;
44850;SDS011;30583;48.714;9.386;2023-03-14T02:50:43;0.65;;;0.32;;
44850;SDS011;30583;48.714;9.386;2023-03-14T02:53:12;0.50;;;0.30;;
44850;SDS011;30583;48.714;9.386;2023-03-14T02:55:43;0.85;;;0.55;;
44850;SDS011;30583;48.714;9.386;2023-03-14T02:58:10;0.30;;;0.20;;
44850;SDS011;30583;48.714;9.386;2023-03-14T03:00:36;0.55;;;0.20;;
44850;SDS011;30583;48.714;9.386;2023-03-14T03:03:01;0.75;;;0.30;;
44850;SDS011;30583;48.714;9.386;2023-03-14T03:05:27;0.75;;;0.28;;
44850;SDS011;30583;48.714;9.386;2023-03-14T03:07:52;1.75;;;0.40;;
44850;SDS011;30583;48.714;9.386;2023-03-14T03:10:18;0.60;;;0.30;;
44850;SDS011;30583;48.714;9.386;2023-03-14T03:12:43;1.00;;;0.40;;
44850;SDS011;30583;48.714;9.386;2023-03-14T03:15:09;0.38;;;0.20;;
44850;SDS011;30583;48.714;9.386;2023-03-14T03:17:35;0.63;;;0.38;;
44850;SDS011;30583;48.714;9.386;2023-03-14T03:20:00;0.75;;;0.55;;
44850;SDS011;30583;48.714;9.386;2023-03-14T03:22:26;0.93;;;0.47;;
44850;SDS011;30583;48.714;9.386;2023-03-14T03:24:52;1.02;;;0.47;;
44850;SDS011;30583;48.714;9.386;2023-03-14T03:27:17;0.88;;;0.40;;
44850;SDS011;30583;48.714;9.386;2023-03-14T03:29:43;0.95;;;0.38;;
44850;SDS011;30583;48.714;9.386;2023-03-14T03:32:08;1.55;;;0.30;;
44850;SDS011;30583;48.714;9.386;2023-03-14T03:34:34;1.15;;;0.28;;
44850;SDS011;30583;48.714;9.386;2023-03-14T03:37:00;0.30;;;0.30;;
44850;SDS011;30583;48.714;9.386;2023-03-14T03:39:25;2.00;;;1.08;;
44850;SDS011;30583;48.714;9.386;2023-03-14T03:41:51;2.22;;;0.80;;
44850;SDS011;30583;48.714;9.386;2023-03-14T03:44:16;6.03;;;2.03;;
44850;SDS011;30583;48.714;9.386;2023-03-14T03:46:42;2.70;;;1.00;;
44850;SDS011;30583;48.714;9.386;2023-03-14T03:49:07;1.42;;;0.60;;
44850;SDS011;30583;48.714;9.386;2023-03-14T03:51:33;1.38;;;0.50;;
44850;SDS011;30583;48.714;9.386;2023-03-14T03:53:58;1.20;;;0.40;;
44850;SDS011;30583;48.714;9.386;2023-03-14T03:56:24;2.20;;;0.50;;
44850;SDS011;30583;48.714;9.386;2023-03-14T03:58:49;1.85;;;0.60;;
44850;SDS011;30583;48.714;9.386;2023-03-14T04:01:15;1.00;;;0.40;;
44850;SDS011;30583;48.714;9.386;2023-03-14T04:03:41;1.15;;;0.40;;
44850;SDS011;30583;48.714;9.386;2023-03-14T04:06:08;0.60;;;0.30;;
44850;SDS011;30583;48.714;9.386;2023-03-14T04:08:35;3.25;;;0.50;;
44850;SDS011;30583;48.714;9.386;2023-03-14T04:11:02;3.10;;;0.73;;
44850;SDS011;30583;48.714;9.386;2023-03-14T04:13:28;1.00;;;0.40;;
44850;SDS011;30583;48.714;9.386;2023-03-14T04:15:54;1.50;;;0.43;;
44850;SDS011;30583;48.714;9.386;2023-03-14T04:18:21;2.42;;;0.88;;
44850;SDS011;30583;48.714;9.386;2023-03-14T04:20:51;0.68;;;0.50;;
44850;SDS011;30583;48.714;9.386;2023-03-14T04:23:17;2.22;;;0.60;;
44850;SDS011;30583;48.714;9.386;2023-03-14T04:25:43;1.20;;;0.73;;
44850;SDS011;30583;48.714;9.386;2023-03-14T04:28:08;1.23;;;0.70;;
44850;SDS011;30583;48.714;9.386;2023-03-14T04:30:34;1.55;;;0.65;;
44850;SDS011;30583;48.714;9.386;2023-03-14T04:32:59;1.88;;;0.95;;
44850;SDS011;30583;48.714;9.386;2023-03-14T04:35:25;0.93;;;0.47;;
44850;SDS011;30583;48.714;9.386;2023-03-14T04:37:51;1.58;;;0.50;;
44850;SDS011;30583;48.714;9.386;2023-03-14T04:40:17;3.05;;;1.00;;
44850;SDS011;30583;48.714;9.386;2023-03-14T04:42:43;4.00;;;1.75;;
44850;SDS011;30583;48.714;9.386;2023-03-14T04:45:08;3.97;;;1.60;;
44850;SDS011;30583;48.714;9.386;2023-03-14T04:47:34;4.35;;;1.20;;
44850;SDS011;30583;48.714;9.386;2023-03-14T04:50:00;3.65;;;0.88;;
44850;SDS011;30583;48.714;9.386;2023-03-14T04:52:26;2.67;;;0.70;;
44850;SDS011;30583;48.714;9.386;2023-03-14T04:54:52;1.85;;;0.68;;
44850;SDS011;30583;48.714;9.386;2023-03-14T04:57:17;2.30;;;0.70;;
44850;SDS011;30583;48.714;9.386;2023-03-14T04:59:43;3.05;;;0.75;;
44850;SDS011;30583;48.714;9.386;2023-03-14T05:02:09;1.85;;;0.50;;
44850;SDS011;30583;48.714;9.386;2023-03-14T05:04:34;3.65;;;0.85;;
44850;SDS011;30583;48.714;9.386;2023-03-14T05:07:00;1.35;;;0.47;;
44850;SDS011;30583;48.714;9.386;2023-03-14T05:09:26;1.20;;;0.65;;
44850;SDS011;30583;48.714;9.386;2023-03-14T05:11:51;2.55;;;0.60;;
44850;SDS011;30583;48.714;9.386;2023-03-14T05:14:17;1.77;;;0.70;;
44850;SDS011;30583;48.714;9.386;2023-03-14T05:16:43;1.88;;;0.60;;
44850;SDS011;30583;48.714;9.386;2023-03-14T05:19:08;1.55;;;0.60;;
44850;SDS011;30583;48.714;9.386;2023-03-14T05:21:36;3.13;;;0.90;;
44850;SDS011;30583;48.714;9.386;2023-03-14T05:24:02;2.92;;;0.80;;
44850;SDS011;30583;48.714;9.386;2023-03-14T05:26:27;6.50;;;4.10;;
44850;SDS011;30583;48.714;9.386;2023-03-14T05:28:53;5.22;;;2.70;;
44850;SDS011;30583;48.714;9.386;2023-03-14T05:31:19;4.32;;;1.30;;
44850;SDS011;30583;48.714;9.386;2023-03-14T05:33:45;3.20;;;1.00;;
44850;SDS011;30583;48.714;9.386;2023-03-14T05:36:10;4.05;;;0.93;;
44850;SDS011;30583;48.714;9.386;2023-03-14T05:38:36;2.03;;;0.60;;
44850;SDS011;30583;48.714;9.386;2023-03-14T05:41:01;3.60;;;1.05;;
44850;SDS011;30583;48.714;9.386;2023-03-14T05:43:27;3.35;;;1.10;;
44850;SDS011;30583;48.714;9.386;2023-03-14T05:45:53;2.20;;;0.60;;
44850;SDS011;30583;48.714;9.386;2023-03-14T05:48:18;3.67;;;1.02;;
44850;SDS011;30583;48.714;9.386;2023-03-14T05:50:44;2.70;;;0.88;;
44850;SDS011;30583;48.714;9.386;2023-03-14T05:53:10;136.07;;;53.47;;
44850;SDS011;30583;48.714;9.386;2023-03-14T05:55:35;310.60;;;122.50;;
44850;SDS011;30583;48.714;9.386;2023-03-14T05:58:01;149.50;;;76.50;;
44850;SDS011;30583;48.714;9.386;2023-03-14T06:00:26;545.25;;;352.58;;
44850;SDS011;30583;48.714;9.386;2023-03-14T06:02:52;213.13;;;121.97;;
44850;SDS011;30583;48.714;9.386;2023-03-14T06:05:17;327.60;;;219.68;;
44850;SDS011;30583;48.714;9.386;2023-03-14T06:07:43;96.88;;;64.10;;
44850;SDS011;30583;48.714;9.386;2023-03-14T06:10:09;30.63;;;18.10;;
44850;SDS011;30583;48.714;9.386;2023-03-14T06:12:35;20.15;;;12.93;;
44850;SDS011;30583;48.714;9.386;2023-03-14T06:15:00;23.08;;;13.52;;
44850;SDS011;30583;48.714;9.386;2023-03-14T06:17:26;41.47;;;28.23;;
44850;SDS011;30583;48.714;9.386;2023-03-14T06:19:51;21.77;;;12.98;;
44850;SDS011;30583;48.714;9.386;2023-03-14T06:22:17;10.02;;;6.68;;
44850;SDS011;30583;48.714;9.386;2023-03-14T06:24:42;22.33;;;18.85;;
44850;SDS011;30583;48.714;9.386;2023-03-14T06:27:08;18.40;;;15.93;;
44850;SDS011;30583;48.714;9.386;2023-03-14T06:29:33;6.53;;;3.92;;
44850;SDS011;30583;48.714;9.386;2023-03-14T06:31:59;7.32;;;4.30;;
44850;SDS011;30583;48.714;9.386;2023-03-14T06:34:25;3.92;;;2.17;;
44850;SDS011;30583;48.714;9.386;2023-03-14T06:36:50;5.45;;;1.48;;
44850;SDS011;30583;48.714;9.386;2023-03-14T06:39:16;4.07;;;1.23;;
44850;SDS011;30583;48.714;9.386;2023-03-14T06:41:41;3.33;;;1.10;;
44850;SDS011;30583;48.714;9.386;2023-03-14T06:44:07;3.13;;;1.20;;
44850;SDS011;30583;48.714;9.386;2023-03-14T06:46:32;3.33;;;1.20;;
44850;SDS011;30583;48.714;9.386;2023-03-14T06:48:58;76.03;;;33.70;;
44850;SDS011;30583;48.714;9.386;2023-03-14T06:51:23;1630.53;;;610.83;;
44850;SDS011;30583;48.714;9.386;2023-03-14T06:53:49;1999.90;;;764.42;;
44850;SDS011;30583;48.714;9.386;2023-03-14T06:56:15;1379.32;;;553.63;;
44850;SDS011;30583;48.714;9.386;2023-03-14T06:58:40;147.43;;;50.65;;
44850;SDS011;30583;48.714;9.386;2023-03-14T07:01:10;51.33;;;16.80;;
44850;SDS011;30583;48.714;9.386;2023-03-14T07:03:49;80.93;;;28.00;;
44850;SDS011;30583;48.714;9.386;2023-03-14T07:06:15;136.25;;;44.70;;
44850;SDS011;30583;48.714;9.386;2023-03-14T07:08:40;46.30;;;15.88;;
44850;SDS011;30583;48.714;9.386;2023-03-14T07:11:06;11.23;;;3.08;;
44850;SDS011;30583;48.714;9.386;2023-03-14T07:13:32;4.80;;;1.30;;
44850;SDS011;30583;48.714;9.386;2023-03-14T07:15:58;8.32;;;4.60;;
44850;SDS011;30583;48.714;9.386;2023-03-14T07:18:23;195.55;;;82.47;;
44850;SDS011;30583;48.714;9.386;2023-03-14T07:20:49;72.88;;;33.05;;
44850;SDS011;30583;48.714;9.386;2023-03-14T07:23:15;31.65;;;14.07;;
44850;SDS011;30583;48.714;9.386;2023-03-14T07:25:40;104.95;;;48.28;;
44850;SDS011;30583;48.714;9.386;2023-03-14T07:28:06;192.68;;;81.88;;
44850;SDS011;30583;48.714;9.386;2023-03-14T07:30:32;44.67;;;20.30;;
44850;SDS011;30583;48.714;9.386;2023-03-14T07:32:57;60.13;;;32.10;;
44850;SDS011;30583;48.714;9.386;2023-03-14T07:35:23;78.13;;;45.42;;
44850;SDS011;30583;48.714;9.386;2023-03-14T07:37:48;21.30;;;10.82;;
44850;SDS011;30583;48.714;9.386;2023-03-14T07:40:14;8.35;;;3.80;;
44850;SDS011;30583;48.714;9.386;2023-03-14T07:42:40;11.63;;;5.53;;
44850;SDS011;30583;48.714;9.386;2023-03-14T07:45:07;4.30;;;1.00;;
44850;SDS011;30583;48.714;9.386;2023-03-14T07:47:34;19.73;;;10.13;;
44850;SDS011;30583;48.714;9.386;2023-03-14T07:50:00;4.20;;;1.05;;
44850;SDS011;30583;48.714;9.386;2023-03-14T07:52:25;23.48;;;12.18;;
44850;SDS011;30583;48.714;9.386;2023-03-14T07:54:51;23.77;;;11.10;;
44850;SDS011;30583;48.714;9.386;2023-03-14T07:57:16;4.30;;;1.15;;
44850;SDS011;30583;48.714;9.386;2023-03-14T07:59:42;5.05;;;0.90;;
44850;SDS011;30583;48.714;9.386;2023-03-14T08:02:11;4.82;;;1.27;;
44850;SDS011;30583;48.714;9.386;2023-03-14T08:04:38;14.10;;;9.90;;
44850;SDS011;30583;48.714;9.386;2023-03-14T08:07:04;2.08;;;0.90;;
44850;SDS011;30583;48.714;9.386;2023-03-14T08:09:30;3.15;;;1.45;;
44850;SDS011;30583;48.714;9.386;2023-03-14T08:11:56;3.22;;;1.63;;
44850;SDS011;30583;48.714;9.386;2023-03-14T08:14:21;10.00;;;6.25;;
44850;SDS011;30583;48.714;9.386;2023-03-14T08:16:49;8.48;;;5.22;;
44850;SDS011;30583;48.714;9.386;2023-03-14T08:19:15;2.72;;;0.80;;
44850;SDS011;30583;48.714;9.386;2023-03-14T08:21:41;3.03;;;1.17;;
44850;SDS011;30583;48.714;9.386;2023-03-14T08:24:06;2.65;;;0.73;;
44850;SDS011;30583;48.714;9.386;2023-03-14T08:26:32;3.92;;;2.00;;
44850;SDS011;30583;48.714;9.386;2023-03-14T08:28:58;2.13;;;0.95;;
44850;SDS011;30583;48.714;9.386;2023-03-14T08:31:23;4.65;;;0.80;;
44850;SDS011;30583;48.714;9.386;2023-03-14T08:33:49;2.13;;;0.65;;
44850;SDS011;30583;48.714;9.386;2023-03-14T08:36:17;3.03;;;0.77;;
44850;SDS011;30583;48.714;9.386;2023-03-14T08:38:43;2.47;;;0.52;;
44850;SDS011;30583;48.714;9.386;2023-03-14T08:41:09;2.95;;;0.63;;
44850;SDS011;30583;48.714;9.386;2023-03-14T08:43:35;1.70;;;0.68;;
44850;SDS011;30583;48.714;9.386;2023-03-14T08:46:01;2.58;;;0.50;;
44850;SDS011;30583;48.714;9.386;2023-03-14T08:48:27;1.98;;;0.70;;
44850;SDS011;30583;48.714;9.386;2023-03-14T08:50:54;21.00;;;13.80;;
44850;SDS011;30583;48.714;9.386;2023-03-14T08:53:30;4.00;;;1.48;;
44850;SDS011;30583;48.714;9.386;2023-03-14T08:55:55;1.08;;;0.47;;
44850;SDS011;30583;48.714;9.386;2023-03-14T08:58:21;3.50;;;1.00;;
44850;SDS011;30583;48.714;9.386;2023-03-14T09:00:48;11.10;;;7.35;;
44850;SDS011;30583;48.714;9.386;2023-03-14T09:03:14;3.40;;;0.90;;
44850;SDS011;30583;48.714;9.386;2023-03-14T09:05:39;1.05;;;0.55;;
44850;SDS011;30583;48.714;9.386;2023-03-14T09:08:05;2.53;;;0.40;;
44850;SDS011;30583;48.714;9.386;2023-03-14T09:10:31;1.88;;;0.50;;
44850;SDS011;30583;48.714;9.386;2023-03-14T09:12:56;0.93;;;0.28;;
44850;SDS011;30583;48.714;9.386;2023-03-14T09:15:23;3.13;;;0.60;;
44850;SDS011;30583;48.714;9.386;2023-03-14T09:17:49;1.63;;;0.40;;
44850;SDS011;30583;48.714;9.386;2023-03-14T09:20:14;4.03;;;0.30;;
44850;SDS011;30583;48.714;9.386;2023-03-14T09:22:40;1.40;;;0.20;;
44850;SDS011;30583;48.714;9.386;2023-03-14T09:25:06;1.17;;;0.30;;
44850;SDS011;30583;48.714;9.386;2023-03-14T09:27:32;1.20;;;0.20;;
44850;SDS011;30583;48.714;9.386;2023-03-14T09:29:58;0.15;;;0.10;;
44850;SDS011;30583;48.714;9.386;2023-03-14T09:32:23;0.55;;;0.35;;
44850;SDS011;30583;48.714;9.386;2023-03-14T09:34:49;2.05;;;0.40;;
44850;SDS011;30583;48.714;9.386;2023-03-14T09:37:15;1.10;;;0.22;;
44850;SDS011;30583;48.714;9.386;2023-03-14T09:39:41;0.93;;;0.50;;
44850;SDS011;30583;48.714;9.386;2023-03-14T09:42:07;1.42;;;0.43;;
44850;SDS011;30583;48.714;9.386;2023-03-14T09:44:42;1.30;;;0.30;;
44850;SDS011;30583;48.714;9.386;2023-03-14T09:47:19;2.80;;;0.40;;
44850;SDS011;30583;48.714;9.386;2023-03-14T09:49:46;2.35;;;0.22;;
44850;SDS011;30583;48.714;9.386;2023-03-14T09:55:02;2.22;;;0.40;;
44850;SDS011;30583;48.714;9.386;2023-03-14T09:57:30;0.93;;;0.40;;
44850;SDS011;30583;48.714;9.386;2023-03-14T10:00:03;1.58;;;0.57;;
44850;SDS011;30583;48.714;9.386;2023-03-14T10:02:39;1.58;;;0.50;;
44850;SDS011;30583;48.714;9.386;2023-03-14T10:05:17;0.80;;;0.25;;
44850;SDS011;30583;48.714;9.386;2023-03-14T10:07:44;0.82;;;0.30;;
44850;SDS011;30583;48.714;9.386;2023-03-14T10:10:11;1.15;;;0.30;;
44850;SDS011;30583;48.714;9.386;2023-03-14T10:12:44;3.45;;;0.30;;
44850;SDS011;30583;48.714;9.386;2023-03-14T10:15:12;3.90;;;2.25;;
44850;SDS011;30583;48.714;9.386;2023-03-14T10:17:43;3.60;;;1.25;;
44850;SDS011;30583;48.714;9.386;2023-03-14T10:20:26;1.40;;;0.43;;
44850;SDS011;30583;48.714;9.386;2023-03-14T10:23:02;3.65;;;0.50;;
44850;SDS011;30583;48.714;9.386;2023-03-14T10:28:44;1.48;;;0.52;;
44850;SDS011;30583;48.714;9.386;2023-03-14T10:31:11;1.23;;;0.38;;
44850;SDS011;30583;48.714;9.386;2023-03-14T10:33:37;0.77;;;0.30;;
44850;SDS011;30583;48.714;9.386;2023-03-14T10:36:14;2.08;;;0.80;;
44850;SDS011;30583;48.714;9.386;2023-03-14T10:38:40;0.80;;;0.30;;
44850;SDS011;30583;48.714;9.386;2023-03-14T10:41:16;2.00;;;0.30;;
44850;SDS011;30583;48.714;9.386;2023-03-14T10:43:50;0.68;;;0.40;;
44850;SDS011;30583;48.714;9.386;2023-03-14T10:46:19;0.50;;;0.28;;
44850;SDS011;30583;48.714;9.386;2023-03-14T10:48:45;0.82;;;0.38;;
44850;SDS011;30583;48.714;9.386;2023-03-14T10:56:13;0.80;;;0.30;;
44850;SDS011;30583;48.714;9.386;2023-03-14T10:58:41;2.38;;;0.40;;
44850;SDS011;30583;48.714;9.386;2023-03-14T11:01:14;7.13;;;0.98;;
44850;SDS011;30583;48.714;9.386;2023-03-14T11:09:38;1.67;;;0.63;;
44850;SDS011;30583;48.714;9.386;2023-03-14T11:20:55;1.63;;;0.45;;
44850;SDS011;30583;48.714;9.386;2023-03-14T11:28:58;0.75;;;0.20;;
44850;SDS011;30583;48.714;9.386;2023-03-14T11:31:33;0.40;;;0.20;;
44850;SDS011;30583;48.714;9.386;2023-03-14T11:37:13;1.33;;;0.40;;
44850;SDS011;30583;48.714;9.386;2023-03-14T11:42:13;0.98;;;0.98;;
44850;SDS011;30583;48.714;9.386;2023-03-14T11:44:41;0.88;;;0.20;;
44850;SDS011;30583;48.714;9.386;2023-03-14T11:47:24;0.30;;;0.15;;
44850;SDS011;30583;48.714;9.386;2023-03-14T11:55:12;0.40;;;0.20;;
44850;SDS011;30583;48.714;9.386;2023-03-14T11:57:43;1.40;;;0.17;;
44850;SDS011;30583;48.714;9.386;2023-03-14T12:00:20;0.35;;;0.10;;
44850;SDS011;30583;48.714;9.386;2023-03-14T12:05:43;0.20;;;0.17;;
44850;SDS011;30583;48.714;9.386;2023-03-14T12:10:39;0.55;;;0.20;;
44850;SDS011;30583;48.714;9.386;2023-03-14T12:13:12;0.57;;;0.30;;
44850;SDS011;30583;48.714;9.386;2023-03-14T12:15:40;0.10;;;0.10;;
44850;SDS011;30583;48.714;9.386;2023-03-14T12:18:56;0.85;;;0.30;;
44850;SDS011;30583;48.714;9.386;2023-03-14T12:21:11;0.68;;;0.25;;
44850;SDS011;30583;48.714;9.386;2023-03-14T12:23:58;1.52;;;0.70;;
44850;SDS011;30583;48.714;9.386;2023-03-14T12:26:24;4.22;;;1.13;;
44850;SDS011;30583;48.714;9.386;2023-03-14T12:28:52;1.30;;;0.57;;
44850;SDS011;30583;48.714;9.386;2023-03-14T12:31:47;4.45;;;0.70;;
44850;SDS011;30583;48.714;9.386;2023-03-14T12:34:26;1.13;;;0.20;;
44850;SDS011;30583;48.714;9.386;2023-03-14T12:36:57;0.22;;;0.05;;
44850;SDS011;30583;48.714;9.386;2023-03-14T12:50:45;1.17;;;0.30;;
44850;SDS011;30583;48.714;9.386;2023-03-14T13:01:20;5.88;;;3.03;;
44850;SDS011;30583;48.714;9.386;2023-03-14T13:03:56;1.63;;;1.00;;
44850;SDS011;30583;48.714;9.386;2023-03-14T13:12:07;0.88;;;0.30;;
44850;SDS011;30583;48.714;9.386;2023-03-14T13:14:35;1.95;;;0.40;;
44850;SDS011;30583;48.714;9.386;2023-03-14T13:17:09;1.52;;;0.30;;
44850;SDS011;30583;48.714;9.386;2023-03-14T13:19:36;1.50;;;0.45;;
44850;SDS011;30583;48.714;9.386;2023-03-14T13:22:04;1.70;;;0.50;;
44850;SDS011;30583;48.714;9.386;2023-03-14T13:27:03;1.58;;;0.40;;
44850;SDS011;30583;48.714;9.386;2023-03-14T13:29:30;1.92;;;0.60;;
44850;SDS011;30583;48.714;9.386;2023-03-14T13:31:58;3.05;;;0.70;;
44850;SDS011;30583;48.714;9.386;2023-03-14T13:34:26;1.02;;;0.43;;
44850;SDS011;30583;48.714;9.386;2023-03-14T13:36:55;1.00;;;0.47;;
44850;SDS011;30583;48.714;9.386;2023-03-14T13:39:22;8.38;;;3.95;;
44850;SDS011;30583;48.714;9.386;2023-03-14T13:41:50;2.40;;;0.65;;
44850;SDS011;30583;48.714;9.386;2023-03-14T13:44:17;3.60;;;0.45;;
44850;SDS011;30583;48.714;9.386;2023-03-14T13:46:49;1.35;;;0.55;;
44850;SDS011;30583;48.714;9.386;2023-03-14T13:49:21;2.40;;;0.77;;
44850;SDS011;30583;48.714;9.386;2023-03-14T13:51:48;2.95;;;0.80;;
44850;SDS011;30583;48.714;9.386;2023-03-14T13:54:18;2.05;;;0.60;;
44850;SDS011;30583;48.714;9.386;2023-03-14T13:56:45;1.98;;;0.60;;
44850;SDS011;30583;48.714;9.386;2023-03-14T14:04:38;3.53;;;0.77;;
44850;SDS011;30583;48.714;9.386;2023-03-14T14:07:08;2.97;;;0.80;;
44850;SDS011;30583;48.714;9.386;2023-03-14T14:09:39;1.45;;;0.55;;
44850;SDS011;30583;48.714;9.386;2023-03-14T14:12:10;2.45;;;0.60;;
44850;SDS011;30583;48.714;9.386;2023-03-14T14:17:20;1.27;;;0.50;;
44850;SDS011;30583;48.714;9.386;2023-03-14T14:20:11;1.35;;;0.50;;
44850;SDS011;30583;48.714;9.386;2023-03-14T14:22:49;2.28;;;0.70;;
44850;SDS011;30583;48.714;9.386;2023-03-14T14:25:15;0.88;;;0.43;;
44850;SDS011;30583;48.714;9.386;2023-03-14T14:27:42;2.78;;;0.70;;
44850;SDS011;30583;48.714;9.386;2023-03-14T14:32:43;3.63;;;0.75;;
44850;SDS011;30583;48.714;9.386;2023-03-14T14:35:21;4.57;;;1.23;;
44850;SDS011;30583;48.714;9.386;2023-03-14T14:37:47;4.25;;;0.68;;
44850;SDS011;30583;48.714;9.386;2023-03-14T14:40:18;4.93;;;0.63;;
44850;SDS011;30583;48.714;9.386;2023-03-14T14:42:46;2.75;;;0.75;;
44850;SDS011;30583;48.714;9.386;2023-03-14T14:45:13;5.95;;;0.88;;
44850;SDS011;30583;48.714;9.386;2023-03-14T14:47:51;3.53;;;0.68;;
44850;SDS011;30583;48.714;9.386;2023-03-14T14:53:13;2.97;;;0.60;;
44850;SDS011;30583;48.714;9.386;2023-03-14T14:55:55;2.35;;;1.00;;
44850;SDS011;30583;48.714;9.386;2023-03-14T15:03:29;2.95;;;0.68;;
44850;SDS011;30583;48.714;9.386;2023-03-14T15:05:56;2.45;;;0.82;;
44850;SDS011;30583;48.714;9.386;2023-03-14T15:08:22;4.15;;;0.98;;
44850;SDS011;30583;48.714;9.386;2023-03-14T15:10:49;2.22;;;0.70;;
44850;SDS011;30583;48.714;9.386;2023-03-14T15:13:15;3.17;;;1.13;;
44850;SDS011;30583;48.714;9.386;2023-03-14T15:15:41;4.70;;;0.70;;
44850;SDS011;30583;48.714;9.386;2023-03-14T15:18:25;3.13;;;0.73;;
44850;SDS011;30583;48.714;9.386;2023-03-14T15:20:54;5.32;;;0.80;;
44850;SDS011;30583;48.714;9.386;2023-03-14T15:23:20;3.20;;;0.60;;
44850;SDS011;30583;48.714;9.386;2023-03-14T15:25:46;5.03;;;1.20;;
44850;SDS011;30583;48.714;9.386;2023-03-14T15:28:17;3.03;;;0.77;;
44850;SDS011;30583;48.714;9.386;2023-03-14T15:30:46;4.22;;;0.80;;
44850;SDS011;30583;48.714;9.386;2023-03-14T15:33:12;4.82;;;0.80;;
44850;SDS011;30583;48.714;9.386;2023-03-14T15:35:38;2.78;;;0.77;;
44850;SDS011;30583;48.714;9.386;2023-03-14T15:38:04;2.17;;;0.93;;
44850;SDS011;30583;48.714;9.386;2023-03-14T15:40:29;3.17;;;0.90;;
44850;SDS011;30583;48.714;9.386;2023-03-14T15:42:55;2.28;;;0.80;;
44850;SDS011;30583;48.714;9.386;2023-03-14T15:45:21;4.18;;;0.88;;
44850;SDS011;30583;48.714;9.386;2023-03-14T15:47:46;1.80;;;0.50;;
44850;SDS011;30583;48.714;9.386;2023-03-14T15:50:12;3.95;;;0.60;;
44850;SDS011;30583;48.714;9.386;2023-03-14T15:52:38;3.58;;;0.85;;
44850;SDS011;30583;48.714;9.386;2023-03-14T15:55:03;2.08;;;0.60;;
44850;SDS011;30583;48.714;9.386;2023-03-14T15:57:29;2.13;;;0.75;;
44850;SDS011;30583;48.714;9.386;2023-03-14T15:59:55;2.78;;;0.60;;
44850;SDS011;30583;48.714;9.386;2023-03-14T16:02:20;1.98;;;0.47;;
44850;SDS011;30583;48.714;9.386;2023-03-14T16:04:46;2.78;;;0.60;;
44850;SDS011;30583;48.714;9.386;2023-03-14T16:07:12;6.30;;;0.80;;
44850;SDS011;30583;48.714;9.386;2023-03-14T16:09:37;3.65;;;0.80;;
44850;SDS011;30583;48.714;9.386;2023-03-14T16:12:03;3.00;;;0.80;;
44850;SDS011;30583;48.714;9.386;2023-03-14T16:14:31;3.78;;;0.98;;
44850;SDS011;30583;48.714;9.386;2023-03-14T16:16:57;5.35;;;1.00;;
44850;SDS011;30583;48.714;9.386;2023-03-14T16:19:24;5.38;;;1.10;;
44850;SDS011;30583;48.714;9.386;2023-03-14T16:21:51;3.50;;;0.80;;
44850;SDS011;30583;48.714;9.386;2023-03-14T16:24:17;5.00;;;1.23;;
44850;SDS011;30583;48.714;9.386;2023-03-14T16:26:43;5.45;;;1.00;;
44850;SDS011;30583;48.714;9.386;2023-03-14T16:29:10;3.13;;;1.05;;